TimeAKST,TemperatureF,Dew PointF,Humidity,Sea Level PressureIn,VisibilityMPH,Wind Direction,Wind SpeedMPH,Gust SpeedMPH,PrecipitationIn,Events,Conditions,WindDirDegrees,DateUTC
12:34 AM,19.4,17.6,93,28.86,10.0,NNE,18.4,-,0.00,,Overcast,30,2013-02-10 09:34:00
12:53 AM,19.9,17.1,89,28.86,9.0,NNE,18.4,-,0.00,,Overcast,30,2013-02-10 09:53:00
1:53 AM,19.9,17.1,89,28.85,9.0,NNE,18.4,27.6,N/A,,Overcast,30,2013-02-10 10:53:00
3:53 AM,21.9,18.0,85,28.85,6.0,NE,18.4,-,0.00,Snow,Light Snow,40,2013-02-10 12:53:00
4:25 AM,21.2,19.4,93,28.84,4.0,NNE,16.1,-,0.01,Snow,Light Snow,30,2013-02-10 13:25:00
4:53 AM,21.9,19.0,89,28.83,8.0,NNE,13.8,-,0.01,Snow,Light Snow,30,2013-02-10 13:53:00
5:53 AM,23.0,18.0,81,28.82,10.0,NE,16.1,-,0.00,,Overcast,40,2013-02-10 14:53:00
6:45 AM,21.2,17.6,86,28.82,5.0,NE,16.1,-,0.00,Snow,Light Snow,40,2013-02-10 15:45:00
6:53 AM,21.9,18.0,85,28.82,6.0,NNE,17.3,-,0.00,Snow,Light Snow,30,2013-02-10 15:53:00
7:53 AM,23.0,19.0,85,28.82,3.0,NNE,13.8,-,0.00,Snow,Light Snow,30,2013-02-10 16:53:00
8:47 AM,23.0,19.4,86,28.82,2.5,NNE,13.8,-,0.01,Snow,Light Snow,30,2013-02-10 17:47:00
8:53 AM,23.0,19.9,88,28.82,2.0,NE,15.0,-,0.01,Snow,Light Snow,40,2013-02-10 17:53:00
9:53 AM,24.1,21.0,88,28.83,2.5,NE,12.7,-,0.02,Snow,Light Snow,40,2013-02-10 18:53:00
10:23 AM,24.8,23.0,93,28.84,1.5,NE,9.2,-,0.01,Snow,Light Snow,50,2013-02-10 19:23:00
10:35 AM,24.8,23.0,93,28.84,1.0,NE,8.1,-,0.01,Snow,Snow,40,2013-02-10 19:35:00
10:44 AM,24.8,23.0,93,28.83,0.8,NE,10.4,-,0.02,Snow,Snow,40,2013-02-10 19:44:00
10:53 AM,25.0,23.0,92,28.84,1.0,NE,10.4,-,0.02,Snow,Snow,40,2013-02-10 19:53:00
11:53 AM,26.1,24.1,92,28.86,1.5,ENE,12.7,-,0.01,Snow,Light Snow,70,2013-02-10 20:53:00
12:53 PM,26.1,23.0,88,28.87,1.0,ENE,12.7,-,0.02,Snow,Light Snow,70,2013-02-10 21:53:00
1:53 PM,25.0,23.0,92,28.88,1.0,ENE,15.0,-,0.01,Snow,Light Snow,70,2013-02-10 22:53:00
2:14 PM,24.8,21.2,86,28.89,0.8,ENE,16.1,-,0.00,Snow,Light Snow,70,2013-02-10 23:14:00
2:27 PM,24.8,21.2,86,28.89,1.5,ENE,17.3,-,0.01,Snow,Light Snow,70,2013-02-10 23:27:00
2:37 PM,24.8,21.2,86,28.89,2.0,East,15.0,-,0.01,Snow,Light Snow,80,2013-02-10 23:37:00
2:53 PM,24.1,21.9,91,28.90,1.5,SE,10.4,-,0.02,Snow,Light Snow,140,2013-02-10 23:53:00
3:44 PM,19.4,17.6,93,28.92,1.0,South,18.4,-,0.01,Snow,Light Snow,170,2013-02-11 00:44:00
3:53 PM,17.1,15.1,92,28.93,1.0,South,18.4,26.5,0.01,Snow,Light Snow,180,2013-02-11 00:53:00
4:53 PM,12.0,10.0,92,29.01,0.8,South,27.6,33.4,0.00,Snow,Light Snow,190,2013-02-11 01:53:00
4:56 PM,10.4,8.6,92,29.02,0.8,SSW,23.0,33.4,0.00,Snow,Light Snow,200,2013-02-11 01:56:00
5:53 PM,8.1,7.0,95,29.09,0.8,SSW,21.9,33.4,0.00,Snow,Light Snow,200,2013-02-11 02:53:00
6:17 PM,6.8,3.2,85,29.12,0.8,SSW,20.7,29.9,0.00,Snow,Light Snow,200,2013-02-11 03:17:00
6:37 PM,6.8,3.2,85,29.13,1.0,SSW,21.9,27.6,0.00,Snow,Light Snow,200,2013-02-11 03:37:00
6:47 PM,6.8,1.4,79,29.16,2.0,SSW,20.7,29.9,0.00,Snow,Blowing Snow,210,2013-02-11 03:47:00
6:53 PM,6.1,1.9,83,29.17,2.0,SSW,24.2,32.2,0.00,Snow,Blowing Snow,200,2013-02-11 03:53:00
7:27 PM,5.0,1.4,85,29.20,3.0,South,17.3,-,0.00,Snow,Light Snow,190,2013-02-11 04:27:00
7:53 PM,5.0,1.9,87,29.24,2.0,South,15.0,-,0.00,Snow,Light Snow,190,2013-02-11 04:53:00
8:00 PM,5.0,1.4,85,29.25,3.0,SSW,16.1,24.2,0.00,Snow,Light Snow,200,2013-02-11 05:00:00
8:27 PM,5.0,1.4,85,29.27,2.0,South,16.1,-,0.00,Snow,Light Snow,180,2013-02-11 05:27:00
8:53 PM,3.9,1.0,88,29.27,2.0,South,19.6,-,0.00,Snow,Light Snow,170,2013-02-11 05:53:00
9:53 PM,1.9,-2.0,83,29.33,2.5,South,17.3,-,0.00,Snow,Blowing Snow,180,2013-02-11 06:53:00
10:05 PM,1.4,-2.2,85,29.35,3.0,South,18.4,-,N/A,Snow,Blowing Snow,180,2013-02-11 07:05:00
10:53 PM,-0.0,-5.1,79,29.38,10.0,South,13.8,-,N/A,Snow,Low Drifting Snow,180,2013-02-11 07:53:00
11:22 PM,-0.4,-5.8,78,29.40,5.0,South,12.7,-,N/A,Snow,Blowing Snow,170,2013-02-11 08:22:00
11:45 PM,-0.4,-5.8,78,29.42,4.0,South,13.8,-,N/A,Snow,Blowing Snow,170,2013-02-11 08:45:00
11:53 PM,-0.0,-5.1,79,29.43,4.0,South,13.8,-,N/A,Snow,Blowing Snow,170,2013-02-11 08:53:00